Time;durP1;ratioP1;P1;durP2;ratioP2;P2;SDS_P1;SDS_P2;PMS_P1;PMS_P2;Temp;Humidity;BMP_temperature;BMP_pressure;BME280_temperature;BME280_humidity;BME280_pressure;Samples;Min_cycle;Max_cycle;Signal;HPM_P1;HPM_P2
2020/12/09 00:01:33;;;;;;;;;;;21.70;54.80;;;;;;5053177;28;1354;-67
2020/12/09 00:04:00;;;;;;;;;;;21.70;54.80;;;;;;5053716;28;1643;-67
2020/12/09 00:06:26;;;;;;;;;;;21.70;54.90;;;;;;5068277;28;1459;-67
2020/12/09 00:08:52;;;;;;;;;;;21.60;54.90;;;;;;5053061;28;1957;-67
2020/12/09 00:11:17;;;;;;;;;;;21.60;54.90;;;;;;5050999;28;1673;-67
2020/12/09 00:13:43;;;;;;;;;;;21.60;55.00;;;;;;5046905;28;1132;-67
2020/12/09 00:16:08;;;;;;;;;;;21.60;54.90;;;;;;5068357;28;1507;-67
2020/12/09 00:18:34;;;;;;;;;;;21.60;55.00;;;;;;5068302;28;1361;-65
2020/12/09 00:20:59;;;;;;;;;;;21.60;55.00;;;;;;5052920;28;1396;-66
2020/12/09 00:23:25;;;;;;;;;;;21.60;55.00;;;;;;5053099;28;1382;-66
2020/12/09 00:25:50;;;;;;;;;;;21.50;55.00;;;;;;5068229;28;1604;-66
2020/12/09 00:28:16;;;;;;;;;;;21.50;55.00;;;;;;5052829;28;1643;-67
2020/12/09 00:30:41;;;;;;;;;;;21.60;55.10;;;;;;5052598;28;1966;-66
2020/12/09 00:33:08;;;;;;;;;;;21.50;55.10;;;;;;5052845;28;1662;-67
2020/12/09 00:35:34;;;;;;;;;;;21.50;55.10;;;;;;5067792;28;1732;-67
2020/12/09 00:37:59;;;;;;;;;;;21.50;55.10;;;;;;5068087;28;1645;-66
2020/12/09 00:40:25;;;;;;;;;;;21.50;55.20;;;;;;5051222;28;1350;-67
2020/12/09 00:42:50;;;;;;;;;;;21.50;55.20;;;;;;5051348;28;1366;-67
2020/12/09 00:45:16;;;;;;;;;;;21.50;55.20;;;;;;5067733;28;1751;-67
2020/12/09 00:47:41;;;;;;;;;;;21.50;55.20;;;;;;5052462;28;1624;-67
2020/12/09 00:52:38;;;;;;;;;;;21.40;55.30;;;;;;5052733;28;1737;-66
2020/12/09 00:55:04;;;;;;;;;;;21.50;55.30;;;;;;5051001;28;1386;-67
2020/12/09 00:57:29;;;;;;;;;;;21.40;55.30;;;;;;5052228;28;1700;-67
2020/12/09 00:59:55;;;;;;;;;;;21.40;55.30;;;;;;5067671;28;1687;-65
2020/12/09 01:02:20;;;;;;;;;;;21.40;55.30;;;;;;5052162;28;1655;-66
2020/12/09 01:04:49;;;;;;;;;;;21.40;55.30;;;;;;5050991;28;1339;-67
2020/12/09 01:07:16;;;;;;;;;;;21.40;55.40;;;;;;5045835;28;1318;-65
2020/12/09 01:09:41;;;;;;;;;;;21.40;55.40;;;;;;5052187;28;1909;-66
2020/12/09 01:12:06;;;;;;;;;;;21.40;56.00;;;;;;5044865;28;1349;-67
2020/12/09 01:14:32;;;;;;;;;;;21.40;55.40;;;;;;5071346;28;1642;-67
2020/12/09 01:17:00;;;;;;;;;;;21.40;55.50;;;;;;5070871;28;1640;-66
2020/12/09 01:19:25;;;;;;;;;;;21.30;55.40;;;;;;5070599;28;1694;-66
2020/12/09 01:21:51;;;;;;;;;;;21.40;55.50;;;;;;5050849;28;1429;-65
2020/12/09 01:24:16;;;;;;;;;;;21.40;55.50;;;;;;5052052;28;1361;-66
2020/12/09 01:26:42;;;;;;;;;;;21.40;55.50;;;;;;5052146;28;1639;-67
2020/12/09 01:29:08;;;;;;;;;;;21.30;55.50;;;;;;5067133;28;1969;-66
2020/12/09 01:31:33;;;;;;;;;;;21.30;55.50;;;;;;5052295;28;1290;-67
2020/12/09 01:33:59;;;;;;;;;;;21.30;55.50;;;;;;5050820;28;1689;-67
2020/12/09 01:36:24;;;;;;;;;;;21.30;55.60;;;;;;5051933;28;1605;-67
2020/12/09 01:38:50;;;;;;;;;;;21.30;55.60;;;;;;5067386;28;1376;-66
2020/12/09 01:41:22;;;;;;;;;;;21.30;55.60;;;;;;5067412;28;1421;-66
2020/12/09 01:43:48;;;;;;;;;;;21.30;55.60;;;;;;5052017;28;1713;-67
2020/12/09 01:46:32;;;;;;;;;;;21.30;55.60;;;;;;5051594;28;1591;-65
2020/12/09 01:49:00;;;;;;;;;;;21.20;55.60;;;;;;5051984;28;1960;-66
2020/12/09 01:51:26;;;;;;;;;;;21.30;55.70;;;;;;5050565;28;1366;-67
2020/12/09 01:53:51;;;;;;;;;;;21.30;55.70;;;;;;5051099;28;1332;-66
2020/12/09 01:56:17;;;;;;;;;;;21.30;55.70;;;;;;5067175;28;1724;-67
2020/12/09 01:58:42;;;;;;;;;;;21.30;55.70;;;;;;5052003;28;1368;-67
2020/12/09 02:01:08;;;;;;;;;;;21.30;55.70;;;;;;5051685;28;1382;-65
2020/12/09 02:03:33;;;;;;;;;;;21.20;55.70;;;;;;5052059;28;1370;-67
2020/12/09 02:05:59;;;;;;;;;;;21.20;55.70;;;;;;5049689;28;1365;-67
2020/12/09 02:08:24;;;;;;;;;;;21.20;55.70;;;;;;5071791;28;1395;-66
2020/12/09 02:10:59;;;;;;;;;;;21.20;55.70;;;;;;5070550;28;1894;-67
2020/12/09 02:13:25;;;;;;;;;;;21.20;55.80;;;;;;5033211;28;1221;-67
2020/12/09 02:15:50;;;;;;;;;;;21.20;55.80;;;;;;5033867;28;1668;-67
2020/12/09 02:18:16;;;;;;;;;;;21.20;55.80;;;;;;5067009;28;1383;-66
2020/12/09 02:20:41;;;;;;;;;;;21.20;55.80;;;;;;5048952;28;1369;-67
2020/12/09 02:23:07;;;;;;;;;;;21.20;55.80;;;;;;5071576;28;1512;-66
2020/12/09 02:25:32;;;;;;;;;;;21.20;55.80;;;;;;5073093;28;1506;-65
2020/12/09 02:27:58;;;;;;;;;;;21.20;55.70;;;;;;5074437;28;1678;-67
2020/12/09 02:30:23;;;;;;;;;;;21.20;55.70;;;;;;5075352;28;1906;-67
2020/12/09 02:32:48;;;;;;;;;;;21.20;55.70;;;;;;5075433;28;1656;-66
2020/12/09 02:35:14;;;;;;;;;;;21.30;55.70;;;;;;5075032;28;1637;-67
2020/12/09 02:37:39;;;;;;;;;;;21.30;55.70;;;;;;5075261;28;1358;-67
2020/12/09 02:40:05;;;;;;;;;;;21.30;55.60;;;;;;5073875;28;1643;-66
2020/12/09 02:42:30;;;;;;;;;;;21.30;55.60;;;;;;5073802;28;1577;-67
2020/12/09 02:44:56;;;;;;;;;;;21.30;55.60;;;;;;5073770;28;1665;-65
2020/12/09 02:47:21;;;;;;;;;;;21.30;55.60;;;;;;5073550;28;1681;-67
2020/12/09 02:49:47;;;;;;;;;;;21.30;55.60;;;;;;5073669;28;1945;-65
2020/12/09 02:52:12;;;;;;;;;;;21.30;55.60;;;;;;5063096;28;1690;-67
2020/12/09 02:54:38;;;;;;;;;;;21.30;55.60;;;;;;5053701;28;1365;-66
2020/12/09 02:57:03;;;;;;;;;;;21.30;55.60;;;;;;5055088;28;1337;-66
2020/12/09 02:59:28;;;;;;;;;;;21.30;55.60;;;;;;5054987;28;1695;-66
2020/12/09 03:01:54;;;;;;;;;;;21.30;55.70;;;;;;5070348;28;1384;-67
2020/12/09 03:04:19;;;;;;;;;;;21.20;55.60;;;;;;5053481;28;1680;-66
2020/12/09 03:06:45;;;;;;;;;;;21.20;55.70;;;;;;5058639;28;1138;-65
2020/12/09 03:09:10;;;;;;;;;;;21.20;55.70;;;;;;5074117;28;1901;-67
2020/12/09 03:11:36;;;;;;;;;;;21.20;55.70;;;;;;5057826;28;1167;-66
2020/12/09 03:14:01;;;;;;;;;;;21.20;55.70;;;;;;5053881;28;1297;-63
2020/12/09 03:16:27;;;;;;;;;;;21.20;55.70;;;;;;5050302;28;1365;-63
2020/12/09 03:18:53;;;;;;;;;;;21.20;55.70;;;;;;5068690;28;1315;-65
2020/12/09 03:21:18;;;;;;;;;;;21.20;55.80;;;;;;5070324;28;1227;-64
2020/12/09 03:23:44;;;;;;;;;;;21.20;55.80;;;;;;5070466;28;1192;-63
2020/12/09 03:26:10;;;;;;;;;;;21.20;55.80;;;;;;5069362;28;1053;-62
2020/12/09 03:28:35;;;;;;;;;;;21.20;55.80;;;;;;5055984;28;1541;-65
2020/12/09 03:31:04;;;;;;;;;;;21.20;55.80;;;;;;5048670;28;1910;-66
2020/12/09 03:33:29;;;;;;;;;;;21.20;55.90;;;;;;5051155;28;1331;-65
2020/12/09 03:35:55;;;;;;;;;;;21.10;55.80;;;;;;5047340;28;1326;-67
2020/12/09 03:38:20;;;;;;;;;;;21.10;55.90;;;;;;5046876;28;1204;-66
2020/12/09 03:40:46;;;;;;;;;;;21.10;55.90;;;;;;5049427;28;1339;-65
2020/12/09 03:43:11;;;;;;;;;;;21.10;55.90;;;;;;5053219;28;1286;-66
2020/12/09 03:45:38;;;;;;;;;;;21.10;55.90;;;;;;5049573;28;1327;-64
2020/12/09 03:48:05;;;;;;;;;;;21.10;55.90;;;;;;5056764;28;1355;-64
2020/12/09 03:50:31;;;;;;;;;;;21.10;56.00;;;;;;5052478;28;1899;-66
2020/12/09 03:52:56;;;;;;;;;;;21.10;56.00;;;;;;5060066;28;1251;-65
2020/12/09 03:55:22;;;;;;;;;;;21.10;56.00;;;;;;5063965;28;1335;-65
2020/12/09 03:57:48;;;;;;;;;;;21.10;56.00;;;;;;5069042;28;1330;-65
2020/12/09 04:00:13;;;;;;;;;;;21.10;56.00;;;;;;5051650;28;1279;-66
2020/12/09 04:02:39;;;;;;;;;;;21.10;56.00;;;;;;5048153;28;1298;-67
2020/12/09 04:05:04;;;;;;;;;;;21.10;56.00;;;;;;5058682;28;1211;-66
2020/12/09 04:07:30;;;;;;;;;;;21.10;56.00;;;;;;5081464;28;1345;-67
2020/12/09 04:09:55;;;;;;;;;;;21.10;56.10;;;;;;5081856;28;1930;-68
2020/12/09 04:12:23;;;;;;;;;;;21.10;56.00;;;;;;5053386;28;1460;-66
2020/12/09 04:14:52;;;;;;;;;;;21.10;56.00;;;;;;5075650;28;1314;-66
2020/12/09 04:17:17;;;;;;;;;;;21.10;56.00;;;;;;5054962;28;1111;-66
2020/12/09 04:19:43;;;;;;;;;;;21.20;55.90;;;;;;5070449;28;1338;-67
2020/12/09 04:22:08;;;;;;;;;;;21.20;55.80;;;;;;5054128;28;1134;-65
2020/12/09 04:24:34;;;;;;;;;;;21.30;55.70;;;;;;5069472;28;1199;-67
2020/12/09 04:26:59;;;;;;;;;;;21.40;55.60;;;;;;5069359;28;1151;-63
2020/12/09 04:29:25;;;;;;;;;;;21.50;55.40;;;;;;5052708;28;1910;-66
2020/12/09 04:31:50;;;;;;;;;;;21.60;55.20;;;;;;5053802;28;1187;-67
2020/12/09 04:34:19;;;;;;;;;;;21.60;55.00;;;;;;5055032;28;1287;-66
2020/12/09 04:36:44;;;;;;;;;;;21.70;54.80;;;;;;5057993;28;1091;-67
2020/12/09 04:39:10;;;;;;;;;;;21.80;54.70;;;;;;5072893;28;1244;-67
2020/12/09 04:41:35;;;;;;;;;;;21.90;54.50;;;;;;5057552;28;1147;-67
2020/12/09 04:44:00;;;;;;;;;;;21.90;54.30;;;;;;5073036;28;1171;-67
2020/12/09 04:46:26;;;;;;;;;;;22.00;54.20;;;;;;5056414;28;1235;-67
2020/12/09 04:48:56;;;;;;;;;;;22.10;54.10;;;;;;5072215;28;1898;-66
2020/12/09 04:51:27;;;;;;;;;;;22.10;54.00;;;;;;5068941;28;1112;-66
2020/12/09 04:54:02;;;;;;;;;;;22.10;53.80;;;;;;5049192;28;1115;-65
2020/12/09 04:56:30;;;;;;;;;;;22.20;53.80;;;;;;5058471;28;1179;-66
2020/12/09 04:58:55;;;;;;;;;;;22.20;53.70;;;;;;5056880;28;1326;-66
2020/12/09 05:01:21;;;;;;;;;;;22.30;53.70;;;;;;5074048;28;1234;-66
2020/12/09 05:03:47;;;;;;;;;;;22.30;53.60;;;;;;5052962;28;1175;-66
2020/12/09 05:06:14;;;;;;;;;;;22.30;53.50;;;;;;5055181;28;1222;-67
2020/12/09 05:08:42;;;;;;;;;;;22.40;53.50;;;;;;5070906;28;1565;-67
2020/12/09 05:11:08;;;;;;;;;;;22.40;53.40;;;;;;5056341;28;1902;-67
2020/12/09 05:13:34;;;;;;;;;;;22.40;53.40;;;;;;5052195;28;1124;-67
2020/12/09 05:15:59;;;;;;;;;;;22.40;53.30;;;;;;5080302;28;1146;-67
2020/12/09 05:18:34;;;;;;;;;;;22.40;53.30;;;;;;5078999;28;1210;-67
2020/12/09 05:21:03;;;;;;;;;;;22.50;53.30;;;;;;5072078;28;1226;-67
2020/12/09 05:23:30;;;;;;;;;;;22.50;53.30;;;;;;5062756;28;1127;-67
2020/12/09 05:25:55;;;;;;;;;;;22.50;53.20;;;;;;5079650;28;1127;-67
2020/12/09 05:28:20;;;;;;;;;;;22.50;53.80;;;;;;5064086;28;1067;-67
2020/12/09 05:30:47;;;;;;;;;;;22.50;53.10;;;;;;5078723;28;1905;-67
2020/12/09 05:33:16;;;;;;;;;;;22.50;53.10;;;;;;5078337;28;1079;-67
2020/12/09 05:35:42;;;;;;;;;;;22.50;53.10;;;;;;5062765;28;1254;-67
2020/12/09 05:38:11;;;;;;;;;;;22.60;53.10;;;;;;5079547;28;1131;-67
2020/12/09 05:40:40;;;;;;;;;;;22.60;53.10;;;;;;5063220;28;1244;-66
2020/12/09 05:43:05;;;;;;;;;;;22.60;53.10;;;;;;5071723;28;1158;-68
2020/12/09 05:45:31;;;;;;;;;;;22.60;53.00;;;;;;5069372;28;1233;-67
2020/12/09 05:48:15;;;;;;;;;;;22.60;53.10;;;;;;5068859;28;1206;-66
2020/12/09 05:50:59;;;;;;;;;;;22.60;53.10;;;;;;5054001;28;1898;-67
2020/12/09 05:53:28;;;;;;;;;;;22.60;53.10;;;;;;5041963;28;1084;-66
2020/12/09 05:56:09;;;;;;;;;;;22.60;53.10;;;;;;5070012;28;1190;-66
2020/12/09 05:58:34;;;;;;;;;;;22.60;53.10;;;;;;5069827;28;1190;-66
2020/12/09 06:01:09;;;;;;;;;;;22.60;53.10;;;;;;5081271;22;1644;-64
2020/12/09 06:03:35;;;;;;;;;;;22.60;53.20;;;;;;5129700;27;1156;-64
2020/12/09 06:06:07;;;;;;;;;;;22.60;53.20;;;;;;5096568;28;1133;-65
2020/12/09 06:08:53;;;;;;;;;;;22.50;53.20;;;;;;5096495;28;1121;-65
2020/12/09 06:11:28;;;;;;;;;;;22.50;53.20;;;;;;5094042;28;1228;-65
2020/12/09 06:13:53;;;;;;;;;;;22.50;53.30;;;;;;5076210;28;1233;-65
2020/12/09 06:16:20;;;;;;;;;;;22.50;53.30;;;;;;5076309;28;1177;-65
2020/12/09 06:18:46;;;;;;;;;;;22.50;53.40;;;;;;5076067;28;1099;-65
2020/12/09 06:21:11;;;;;;;;;;;22.40;53.40;;;;;;5083929;28;1189;-65
2020/12/09 06:23:37;;;;;;;;;;;22.40;53.50;;;;;;5096436;28;1133;-66
2020/12/09 06:26:03;;;;;;;;;;;22.40;53.50;;;;;;5095125;28;1082;-65
2020/12/09 06:28:29;;;;;;;;;;;22.40;53.60;;;;;;5096371;28;1335;-65
2020/12/09 06:30:55;;;;;;;;;;;22.40;53.60;;;;;;5096036;28;1894;-65
2020/12/09 06:33:35;;;;;;;;;;;22.40;53.70;;;;;;5078033;28;1352;-66
2020/12/09 06:36:11;;;;;;;;;;;22.40;53.70;;;;;;5077927;28;1121;-65
2020/12/09 06:38:36;;;;;;;;;;;22.30;53.70;;;;;;5094913;28;1194;-65
2020/12/09 06:41:05;;;;;;;;;;;22.30;53.80;;;;;;5095144;28;1275;-65
2020/12/09 06:43:31;;;;;;;;;;;22.30;53.80;;;;;;5095761;28;1018;-64
2020/12/09 06:45:56;;;;;;;;;;;22.30;53.80;;;;;;5094759;28;1101;-64
2020/12/09 06:48:22;;;;;;;;;;;22.20;53.80;;;;;;5094752;28;1102;-65
2020/12/09 06:50:47;;;;;;;;;;;22.30;53.90;;;;;;5095950;28;1901;-66
2020/12/09 06:53:13;;;;;;;;;;;22.20;53.90;;;;;;5067691;28;1350;-65
2020/12/09 06:55:38;;;;;;;;;;;22.20;54.00;;;;;;5095760;28;1090;-65
2020/12/09 06:58:22;;;;;;;;;;;22.20;54.10;;;;;;5095403;28;1168;-65
2020/12/09 07:00:57;;;;;;;;;;;22.20;54.10;;;;;;5095651;28;1373;-65
2020/12/09 07:03:23;;;;;;;;;;;22.20;54.10;;;;;;5095686;28;1117;-65
2020/12/09 07:05:48;;;;;;;;;;;22.20;54.10;;;;;;5079012;28;1752;-64
2020/12/09 07:08:14;;;;;;;;;;;22.10;54.10;;;;;;5074120;28;1001;-64
2020/12/09 07:10:40;;;;;;;;;;;22.10;54.20;;;;;;5074461;28;1906;-64
2020/12/09 07:13:09;;;;;;;;;;;22.10;54.20;;;;;;5083310;28;1149;-64
2020/12/09 07:15:35;;;;;;;;;;;22.10;54.30;;;;;;5095010;28;1142;-64
2020/12/09 07:18:01;;;;;;;;;;;22.10;54.30;;;;;;5094044;28;1109;-64
2020/12/09 07:20:26;;;;;;;;;;;22.00;54.30;;;;;;5083336;28;1320;-64
2020/12/09 07:22:52;;;;;;;;;;;22.10;54.40;;;;;;5069506;28;1474;-64
2020/12/09 07:25:17;;;;;;;;;;;22.10;54.40;;;;;;5080680;28;951;-65
2020/12/09 07:27:43;;;;;;;;;;;22.00;54.40;;;;;;5095005;28;1066;-65
2020/12/09 07:30:10;;;;;;;;;;;22.00;54.40;;;;;;5093768;28;1898;-65
2020/12/09 07:32:36;;;;;;;;;;;22.00;54.50;;;;;;5084850;28;980;-65
2020/12/09 07:35:02;;;;;;;;;;;22.00;54.50;;;;;;5093846;28;1121;-64
2020/12/09 07:37:30;;;;;;;;;;;21.90;54.50;;;;;;5093378;28;1161;-65
2020/12/09 07:39:58;;;;;;;;;;;21.90;54.50;;;;;;5093339;28;1386;-64
2020/12/09 07:42:23;;;;;;;;;;;21.90;54.50;;;;;;5093757;28;1109;-65
2020/12/09 07:44:50;;;;;;;;;;;21.90;54.60;;;;;;5093352;28;1200;-65
2020/12/09 07:47:21;;;;;;;;;;;21.90;54.60;;;;;;5093675;28;1132;-66
2020/12/09 07:49:54;;;;;;;;;;;21.90;54.60;;;;;;5092584;28;1910;-66
2020/12/09 07:52:23;;;;;;;;;;;21.90;54.70;;;;;;5068651;28;1279;-64
2020/12/09 07:54:50;;;;;;;;;;;21.80;54.70;;;;;;5069850;28;1251;-65
2020/12/09 07:57:16;;;;;;;;;;;21.80;54.70;;;;;;5071495;28;1185;-64
2020/12/09 07:59:41;;;;;;;;;;;21.80;54.70;;;;;;5071389;28;1279;-64
2020/12/09 08:02:16;;;;;;;;;;;21.80;54.80;;;;;;5073050;28;1165;-64
2020/12/09 08:04:42;;;;;;;;;;;21.80;54.80;;;;;;5074303;28;1126;-64
2020/12/09 08:07:14;;;;;;;;;;;21.80;54.90;;;;;;5073820;28;1150;-64
2020/12/09 08:09:40;;;;;;;;;;;21.80;54.90;;;;;;5072901;28;1974;-64
2020/12/09 08:12:05;;;;;;;;;;;21.80;54.90;;;;;;5074266;28;1103;-65
2020/12/09 08:14:34;;;;;;;;;;;21.80;54.90;;;;;;5087220;28;2203;-64
2020/12/09 08:16:59;;;;;;;;;;;21.80;54.90;;;;;;5067063;28;1810;-65
2020/12/09 08:19:25;;;;;;;;;;;21.80;54.80;;;;;;5073637;28;1674;-64
2020/12/09 08:22:06;;;;;;;;;;;21.90;54.70;;;;;;5086832;28;1408;-64
2020/12/09 08:24:31;;;;;;;;;;;21.90;54.60;;;;;;5073389;28;1157;-64
2020/12/09 08:26:57;;;;;;;;;;;22.00;54.50;;;;;;5073140;28;1327;-64
2020/12/09 08:29:22;;;;;;;;;;;22.00;54.50;;;;;;5072703;28;1960;-64
2020/12/09 08:32:00;;;;;;;;;;;22.10;54.40;;;;;;5074621;28;1366;-65
2020/12/09 08:34:25;;;;;;;;;;;22.10;54.30;;;;;;5093889;28;1359;-65
2020/12/09 08:36:51;;;;;;;;;;;22.20;54.20;;;;;;5093441;28;1374;-64
2020/12/09 08:39:16;;;;;;;;;;;22.20;54.10;;;;;;5092564;28;1389;-64
2020/12/09 08:41:41;;;;;;;;;;;22.20;54.00;;;;;;5092455;28;1689;-65
2020/12/09 08:44:07;;;;;;;;;;;22.30;54.00;;;;;;5093552;28;1385;-64
2020/12/09 08:46:33;;;;;;;;;;;22.30;53.90;;;;;;5092462;28;1607;-64
2020/12/09 08:48:58;;;;;;;;;;;22.30;53.80;;;;;;5092944;28;1898;-64
2020/12/09 08:51:27;;;;;;;;;;;22.30;53.80;;;;;;5084610;28;1410;-65
2020/12/09 08:53:53;;;;;;;;;;;22.30;53.80;;;;;;5074816;28;1407;-64
2020/12/09 08:56:25;;;;;;;;;;;22.30;53.80;;;;;;5074356;28;1409;-64
2020/12/09 08:58:51;;;;;;;;;;;22.30;53.80;;;;;;5092905;28;1758;-63
2020/12/09 09:01:16;;;;;;;;;;;22.30;53.80;;;;;;5080741;28;1402;-64
2020/12/09 09:03:41;;;;;;;;;;;22.30;53.80;;;;;;5084505;28;1684;-64
2020/12/09 09:06:07;;;;;;;;;;;22.30;53.80;;;;;;5092457;28;1670;-64
2020/12/09 09:08:32;;;;;;;;;;;22.30;53.80;;;;;;5092627;28;1395;-64
2020/12/09 09:10:58;;;;;;;;;;;22.30;53.90;;;;;;5093053;28;1910;-64
2020/12/09 09:13:23;;;;;;;;;;;22.30;53.90;;;;;;5073771;28;1523;-63
2020/12/09 09:15:49;;;;;;;;;;;22.20;53.80;;;;;;5076799;28;1692;-64
2020/12/09 09:18:14;;;;;;;;;;;22.30;53.90;;;;;;5092595;28;1696;-63
2020/12/09 09:20:40;;;;;;;;;;;22.20;54.00;;;;;;5081041;28;1690;-63
2020/12/09 09:23:05;;;;;;;;;;;22.20;54.00;;;;;;5072776;28;1385;-63
2020/12/09 09:25:31;;;;;;;;;;;22.20;54.00;;;;;;5072852;28;1705;-63
2020/12/09 09:27:57;;;;;;;;;;;22.20;54.00;;;;;;5070594;28;1466;-63
2020/12/09 09:30:22;;;;;;;;;;;22.20;54.10;;;;;;5071398;28;1902;-63
2020/12/09 09:32:48;;;;;;;;;;;22.20;54.10;;;;;;5071617;28;1288;-64
2020/12/09 09:35:14;;;;;;;;;;;22.10;54.10;;;;;;5070683;28;1746;-64
2020/12/09 09:37:40;;;;;;;;;;;22.10;54.10;;;;;;5071888;28;1380;-63
2020/12/09 09:40:06;;;;;;;;;;;22.10;54.20;;;;;;5068542;28;1914;-64
2020/12/09 09:42:32;;;;;;;;;;;22.10;54.20;;;;;;5070375;28;1307;-64
2020/12/09 09:44:57;;;;;;;;;;;22.10;54.30;;;;;;5069253;28;1410;-63
2020/12/09 09:47:22;;;;;;;;;;;22.10;54.30;;;;;;5064874;28;1374;-64
2020/12/09 09:49:48;;;;;;;;;;;22.10;54.30;;;;;;5071374;28;1902;-63
2020/12/09 09:52:13;;;;;;;;;;;22.00;54.40;;;;;;5071617;28;1240;-63
2020/12/09 09:54:39;;;;;;;;;;;22.00;54.40;;;;;;5070509;28;1359;-64
2020/12/09 09:57:04;;;;;;;;;;;22.00;54.40;;;;;;5064894;28;2285;-63
2020/12/09 09:59:30;;;;;;;;;;;22.00;54.40;;;;;;5067006;28;1899;-63
2020/12/09 10:01:56;;;;;;;;;;;22.00;54.40;;;;;;5079036;28;1291;-63
2020/12/09 10:04:21;;;;;;;;;;;22.00;54.40;;;;;;5081265;28;1704;-65
2020/12/09 10:06:47;;;;;;;;;;;22.10;54.40;;;;;;5069935;28;1603;-65
2020/12/09 10:09:12;;;;;;;;;;;22.10;54.40;;;;;;5069836;28;1964;-63
2020/12/09 10:11:38;;;;;;;;;;;22.10;54.30;;;;;;5070418;28;1367;-63
2020/12/09 10:14:07;;;;;;;;;;;22.10;54.30;;;;;;5070640;28;1364;-64
2020/12/09 10:16:32;;;;;;;;;;;22.10;54.30;;;;;;5051612;28;1654;-64
2020/12/09 10:18:59;;;;;;;;;;;22.10;54.20;;;;;;5065229;28;1980;-64
2020/12/09 10:21:25;;;;;;;;;;;22.10;54.20;;;;;;5068832;28;1746;-62
2020/12/09 10:23:51;;;;;;;;;;;22.20;54.20;;;;;;5068960;28;1677;-63
2020/12/09 10:26:16;;;;;;;;;;;22.20;54.10;;;;;;5067944;28;1394;-63
2020/12/09 10:28:42;;;;;;;;;;;22.20;54.00;;;;;;5068472;28;1652;-64
2020/12/09 10:31:08;;;;;;;;;;;22.30;54.00;;;;;;5068535;28;1894;-64
2020/12/09 10:33:33;;;;;;;;;;;22.30;53.90;;;;;;5070404;28;1376;-64
2020/12/09 10:35:59;;;;;;;;;;;22.30;53.80;;;;;;5079946;28;1370;-64
2020/12/09 10:38:24;;;;;;;;;;;22.40;53.80;;;;;;5088924;28;1378;-64
2020/12/09 10:40:50;;;;;;;;;;;22.40;54.20;;;;;;5088809;28;1380;-63
2020/12/09 10:43:16;;;;;;;;;;;22.50;53.60;;;;;;5090237;28;1671;-64
2020/12/09 10:45:41;;;;;;;;;;;22.50;53.50;;;;;;5073777;28;1339;-64
2020/12/09 10:48:06;;;;;;;;;;;22.50;53.40;;;;;;5072997;28;1218;-64
2020/12/09 10:50:32;;;;;;;;;;;22.50;53.40;;;;;;5072974;28;1890;-64
2020/12/09 10:52:57;;;;;;;;;;;22.60;53.30;;;;;;5072817;28;1224;-64
2020/12/09 10:55:23;;;;;;;;;;;22.60;53.30;;;;;;5073242;28;1381;-63
2020/12/09 10:57:49;;;;;;;;;;;22.60;53.30;;;;;;5073330;28;1672;-64
2020/12/09 11:00:14;;;;;;;;;;;22.60;53.20;;;;;;5073494;28;1646;-64
2020/12/09 11:02:40;;;;;;;;;;;22.60;53.20;;;;;;5073134;28;1691;-63
2020/12/09 11:05:05;;;;;;;;;;;22.60;53.20;;;;;;5073315;28;1387;-64
2020/12/09 11:07:30;;;;;;;;;;;22.60;53.20;;;;;;5071492;28;1428;-64
2020/12/09 11:09:56;;;;;;;;;;;22.60;53.20;;;;;;5073169;28;1955;-64
2020/12/09 11:12:21;;;;;;;;;;;22.60;53.20;;;;;;5074337;28;1728;-63
2020/12/09 11:14:49;;;;;;;;;;;22.60;53.20;;;;;;5093512;28;1622;-64
2020/12/09 11:17:14;;;;;;;;;;;22.60;53.30;;;;;;5092483;28;1206;-65
2020/12/09 11:19:40;;;;;;;;;;;22.60;53.30;;;;;;5088433;28;1634;-64
2020/12/09 11:22:05;;;;;;;;;;;22.60;53.30;;;;;;5073059;28;1645;-63
2020/12/09 11:24:30;;;;;;;;;;;22.60;53.30;;;;;;5072498;28;1372;-64
2020/12/09 11:26:56;;;;;;;;;;;22.60;53.40;;;;;;5071179;28;1596;-63
2020/12/09 11:29:22;;;;;;;;;;;22.60;53.40;;;;;;5072253;28;1980;-63
2020/12/09 11:31:47;;;;;;;;;;;22.50;53.40;;;;;;5072698;28;1366;-64
2020/12/09 11:34:13;;;;;;;;;;;22.50;53.40;;;;;;5082369;28;835;-63
2020/12/09 11:36:38;;;;;;;;;;;22.50;53.50;;;;;;5074241;28;1247;-63
2020/12/09 11:39:04;;;;;;;;;;;22.50;53.50;;;;;;5073124;28;1261;-63
2020/12/09 11:41:29;;;;;;;;;;;22.50;53.60;;;;;;5073302;28;1389;-63
2020/12/09 11:43:55;;;;;;;;;;;22.50;53.60;;;;;;5073304;28;1223;-64
2020/12/09 11:46:21;;;;;;;;;;;22.40;53.70;;;;;;5071362;28;1842;-64
2020/12/09 11:48:46;;;;;;;;;;;22.40;53.70;;;;;;5072933;28;904;-65
2020/12/09 11:51:13;;;;;;;;;;;22.40;53.70;;;;;;5072120;28;1985;-63
2020/12/09 11:53:38;;;;;;;;;;;22.40;53.80;;;;;;5063696;28;1569;-64
2020/12/09 11:56:04;;;;;;;;;;;22.40;53.80;;;;;;5086197;28;1235;-64
2020/12/09 11:58:29;;;;;;;;;;;22.40;53.80;;;;;;5092451;28;1338;-64
2020/12/09 12:00:54;;;;;;;;;;;22.40;53.90;;;;;;5074728;28;1667;-64
2020/12/09 12:03:20;;;;;;;;;;;22.40;53.90;;;;;;5071567;28;1391;-64
2020/12/09 12:05:51;;;;;;;;;;;22.30;53.80;;;;;;5072611;28;1648;-66
2020/12/09 12:08:16;;;;;;;;;;;22.30;53.90;;;;;;5072250;28;1101;-66
2020/12/09 12:10:42;;;;;;;;;;;22.30;53.90;;;;;;5072484;28;1913;-67
2020/12/09 12:13:08;;;;;;;;;;;22.30;53.90;;;;;;5082846;28;1392;-67
2020/12/09 12:15:33;;;;;;;;;;;22.30;54.00;;;;;;5092445;28;1635;-66
2020/12/09 12:17:59;;;;;;;;;;;22.30;54.00;;;;;;5091489;28;1721;-66
2020/12/09 12:20:24;;;;;;;;;;;22.30;54.00;;;;;;5082006;28;1382;-67
2020/12/09 12:22:50;;;;;;;;;;;22.30;54.00;;;;;;5054607;28;1749;-67
2020/12/09 12:25:15;;;;;;;;;;;22.30;54.10;;;;;;5071867;28;1653;-66
2020/12/09 12:27:41;;;;;;;;;;;22.30;54.10;;;;;;5070730;28;1670;-67
2020/12/09 12:30:06;;;;;;;;;;;22.20;54.10;;;;;;5072560;28;1984;-67
2020/12/09 12:32:32;;;;;;;;;;;22.20;54.10;;;;;;5079679;28;1695;-65
2020/12/09 12:34:57;;;;;;;;;;;22.20;54.10;;;;;;5085978;28;1366;-67
2020/12/09 12:37:22;;;;;;;;;;;22.20;54.10;;;;;;5070595;28;976;-67
2020/12/09 12:39:48;;;;;;;;;;;22.20;54.10;;;;;;5071961;28;1535;-66
2020/12/09 12:42:16;;;;;;;;;;;22.20;54.20;;;;;;5065944;28;1806;-65
2020/12/09 12:44:42;;;;;;;;;;;22.20;54.20;;;;;;5070931;28;1742;-66
2020/12/09 12:47:07;;;;;;;;;;;22.10;54.20;;;;;;5082997;28;1570;-67
2020/12/09 12:49:33;;;;;;;;;;;22.10;54.30;;;;;;5071518;28;1902;-67
2020/12/09 12:51:58;;;;;;;;;;;22.10;54.30;;;;;;5072191;28;1382;-66
2020/12/09 12:54:24;;;;;;;;;;;22.10;54.90;;;;;;5078857;28;1535;-65
2020/12/09 12:56:52;;;;;;;;;;;22.10;54.40;;;;;;5078007;28;1411;-66
2020/12/09 12:59:18;;;;;;;;;;;22.10;54.40;;;;;;5066129;28;1662;-66
2020/12/09 13:01:43;;;;;;;;;;;22.10;54.40;;;;;;5079991;28;1372;-66
2020/12/09 13:04:09;;;;;;;;;;;22.10;54.50;;;;;;5074743;28;1371;-66
2020/12/09 13:06:34;;;;;;;;;;;22.10;54.50;;;;;;5069623;28;1603;-66
2020/12/09 13:09:00;;;;;;;;;;;22.00;54.50;;;;;;5073292;28;1402;-66
2020/12/09 13:11:25;;;;;;;;;;;22.00;54.50;;;;;;5076104;28;2005;-66
2020/12/09 13:13:55;;;;;;;;;;;22.00;54.60;;;;;;5079447;28;1657;-66
2020/12/09 13:16:21;;;;;;;;;;;22.00;54.60;;;;;;5078968;28;1359;-67
2020/12/09 13:18:47;;;;;;;;;;;22.00;54.60;;;;;;5073139;28;1658;-66
2020/12/09 13:21:12;;;;;;;;;;;21.90;54.60;;;;;;5074065;28;1424;-67
2020/12/09 13:23:38;;;;;;;;;;;21.90;54.70;;;;;;5078402;28;1358;-66
2020/12/09 13:26:03;;;;;;;;;;;21.90;54.70;;;;;;5078614;28;1683;-67
2020/12/09 13:28:29;;;;;;;;;;;21.90;54.70;;;;;;5071150;28;1374;-66
2020/12/09 13:30:54;;;;;;;;;;;21.90;54.70;;;;;;5075604;28;1898;-66
2020/12/09 13:33:20;;;;;;;;;;;21.90;54.80;;;;;;5079726;28;1360;-66
2020/12/09 13:35:45;;;;;;;;;;;21.90;54.80;;;;;;5069617;28;1718;-63
2020/12/09 13:38:11;;;;;;;;;;;21.90;54.90;;;;;;5078119;28;1209;-64
2020/12/09 13:40:37;;;;;;;;;;;21.80;54.90;;;;;;5078490;28;1662;-65
2020/12/09 13:43:03;;;;;;;;;;;21.80;54.90;;;;;;5068965;28;1379;-64
2020/12/09 13:45:28;;;;;;;;;;;21.80;54.90;;;;;;5075383;28;1438;-65
2020/12/09 13:47:54;;;;;;;;;;;21.90;55.00;;;;;;5077106;28;1344;-66
2020/12/09 13:50:19;;;;;;;;;;;21.80;54.90;;;;;;5079257;28;1981;-66
2020/12/09 13:52:44;;;;;;;;;;;21.80;55.00;;;;;;5072457;28;1387;-66
2020/12/09 13:55:10;;;;;;;;;;;21.80;55.00;;;;;;5076670;28;1390;-66
2020/12/09 13:57:35;;;;;;;;;;;21.80;55.00;;;;;;5077749;28;1394;-66
2020/12/09 14:00:01;;;;;;;;;;;21.80;55.00;;;;;;5076382;28;1687;-64
2020/12/09 14:02:26;;;;;;;;;;;21.70;55.00;;;;;;5066987;28;1716;-66
2020/12/09 14:04:52;;;;;;;;;;;21.70;55.00;;;;;;5077218;28;1695;-67
2020/12/09 14:07:17;;;;;;;;;;;21.80;55.10;;;;;;5076886;28;1646;-66
2020/12/09 14:09:43;;;;;;;;;;;21.70;55.00;;;;;;5077065;28;1914;-67
2020/12/09 14:12:08;;;;;;;;;;;21.80;55.10;;;;;;5070393;28;1376;-65
2020/12/09 14:14:34;;;;;;;;;;;21.70;55.20;;;;;;5075848;28;1710;-66
2020/12/09 14:17:02;;;;;;;;;;;21.70;55.20;;;;;;5074529;28;1659;-63
2020/12/09 14:19:30;;;;;;;;;;;21.70;55.20;;;;;;5076381;28;1468;-66
2020/12/09 14:21:56;;;;;;;;;;;21.70;55.20;;;;;;5080115;28;1573;-67
2020/12/09 14:24:23;;;;;;;;;;;21.70;55.30;;;;;;5079392;28;1390;-68
2020/12/09 14:26:49;;;;;;;;;;;21.70;55.30;;;;;;5072561;28;1511;-67
2020/12/09 14:29:14;;;;;;;;;;;21.70;55.30;;;;;;5070253;28;1967;-67